sensor_id;sensor_type;location;lat;lon;timestamp;P1;durP1;ratioP1;P2;durP2;ratioP2
22388;SDS011;11362;48.102;11.620;2022-11-15T00:00:44;1.80;;;1.70;;
22388;SDS011;11362;48.102;11.620;2022-11-15T00:03:09;2.20;;;2.10;;
22388;SDS011;11362;48.102;11.620;2022-11-15T00:05:35;1.77;;;1.67;;
22388;SDS011;11362;48.102;11.620;2022-11-15T00:08:00;2.03;;;1.93;;
22388;SDS011;11362;48.102;11.620;2022-11-15T00:10:26;2.10;;;1.80;;
22388;SDS011;11362;48.102;11.620;2022-11-15T00:12:51;2.07;;;1.97;;
22388;SDS011;11362;48.102;11.620;2022-11-15T00:15:16;1.97;;;1.87;;
22388;SDS011;11362;48.102;11.620;2022-11-15T00:17:41;1.90;;;1.80;;
22388;SDS011;11362;48.102;11.620;2022-11-15T00:20:07;1.83;;;1.70;;
22388;SDS011;11362;48.102;11.620;2022-11-15T00:22:32;2.03;;;1.83;;
22388;SDS011;11362;48.102;11.620;2022-11-15T00:24:58;1.90;;;1.80;;
22388;SDS011;11362;48.102;11.620;2022-11-15T00:27:23;2.07;;;1.97;;
22388;SDS011;11362;48.102;11.620;2022-11-15T00:29:48;2.20;;;2.10;;
22388;SDS011;11362;48.102;11.620;2022-11-15T00:32:14;1.93;;;1.83;;
22388;SDS011;11362;48.102;11.620;2022-11-15T00:34:39;2.10;;;1.63;;
22388;SDS011;11362;48.102;11.620;2022-11-15T00:37:05;1.97;;;1.87;;
22388;SDS011;11362;48.102;11.620;2022-11-15T00:39:31;1.77;;;1.63;;
22388;SDS011;11362;48.102;11.620;2022-11-15T00:41:56;1.73;;;1.63;;
22388;SDS011;11362;48.102;11.620;2022-11-15T00:44:21;2.00;;;1.90;;
22388;SDS011;11362;48.102;11.620;2022-11-15T00:46:46;1.87;;;1.67;;
22388;SDS011;11362;48.102;11.620;2022-11-15T00:49:12;1.97;;;1.77;;
22388;SDS011;11362;48.102;11.620;2022-11-15T00:51:37;1.70;;;1.60;;
22388;SDS011;11362;48.102;11.620;2022-11-15T00:54:02;1.77;;;1.67;;
22388;SDS011;11362;48.102;11.620;2022-11-15T00:56:28;2.27;;;1.60;;
22388;SDS011;11362;48.102;11.620;2022-11-15T00:58:53;1.60;;;1.50;;
22388;SDS011;11362;48.102;11.620;2022-11-15T01:01:18;1.70;;;1.60;;
22388;SDS011;11362;48.102;11.620;2022-11-15T01:03:44;1.43;;;1.40;;
22388;SDS011;11362;48.102;11.620;2022-11-15T01:06:09;1.47;;;1.40;;
22388;SDS011;11362;48.102;11.620;2022-11-15T01:08:35;2.93;;;2.00;;
22388;SDS011;11362;48.102;11.620;2022-11-15T01:11:04;1.47;;;1.40;;
22388;SDS011;11362;48.102;11.620;2022-11-15T01:13:32;1.80;;;1.70;;
22388;SDS011;11362;48.102;11.620;2022-11-15T01:16:05;2.80;;;1.43;;
22388;SDS011;11362;48.102;11.620;2022-11-15T01:18:40;1.40;;;1.40;;
22388;SDS011;11362;48.102;11.620;2022-11-15T01:21:06;1.43;;;1.43;;
22388;SDS011;11362;48.102;11.620;2022-11-15T01:23:32;1.90;;;1.70;;
22388;SDS011;11362;48.102;11.620;2022-11-15T01:25:59;1.50;;;1.40;;
22388;SDS011;11362;48.102;11.620;2022-11-15T01:28:25;1.80;;;1.70;;
22388;SDS011;11362;48.102;11.620;2022-11-15T01:30:50;1.60;;;1.50;;
22388;SDS011;11362;48.102;11.620;2022-11-15T01:33:15;1.40;;;1.33;;
22388;SDS011;11362;48.102;11.620;2022-11-15T01:35:40;2.53;;;1.60;;
22388;SDS011;11362;48.102;11.620;2022-11-15T01:38:06;1.20;;;1.20;;
22388;SDS011;11362;48.102;11.620;2022-11-15T01:40:32;1.57;;;1.47;;
22388;SDS011;11362;48.102;11.620;2022-11-15T01:42:57;1.60;;;1.50;;
22388;SDS011;11362;48.102;11.620;2022-11-15T01:45:22;1.63;;;1.53;;
22388;SDS011;11362;48.102;11.620;2022-11-15T01:47:51;1.97;;;1.47;;
22388;SDS011;11362;48.102;11.620;2022-11-15T01:50:20;1.43;;;1.40;;
22388;SDS011;11362;48.102;11.620;2022-11-15T01:52:49;1.30;;;1.30;;
22388;SDS011;11362;48.102;11.620;2022-11-15T01:55:21;2.10;;;1.77;;
22388;SDS011;11362;48.102;11.620;2022-11-15T01:57:51;1.40;;;1.30;;
22388;SDS011;11362;48.102;11.620;2022-11-15T02:00:20;1.57;;;1.47;;
22388;SDS011;11362;48.102;11.620;2022-11-15T02:02:45;1.40;;;1.30;;
22388;SDS011;11362;48.102;11.620;2022-11-15T02:05:10;1.20;;;1.20;;
22388;SDS011;11362;48.102;11.620;2022-11-15T02:07:36;1.33;;;1.30;;
22388;SDS011;11362;48.102;11.620;2022-11-15T02:10:03;1.23;;;1.13;;
22388;SDS011;11362;48.102;11.620;2022-11-15T02:12:32;1.60;;;1.50;;
22388;SDS011;11362;48.102;11.620;2022-11-15T02:14:58;1.80;;;1.70;;
22388;SDS011;11362;48.102;11.620;2022-11-15T02:31:24;1.63;;;1.53;;
22388;SDS011;11362;48.102;11.620;2022-11-15T02:39:40;1.50;;;1.40;;
22388;SDS011;11362;48.102;11.620;2022-11-15T02:42:13;1.27;;;1.27;;
22388;SDS011;11362;48.102;11.620;2022-11-15T02:44:43;1.00;;;1.00;;
22388;SDS011;11362;48.102;11.620;2022-11-15T02:47:12;1.00;;;1.00;;
22388;SDS011;11362;48.102;11.620;2022-11-15T02:49:46;1.23;;;1.23;;
22388;SDS011;11362;48.102;11.620;2022-11-15T02:52:14;1.20;;;1.20;;
22388;SDS011;11362;48.102;11.620;2022-11-15T02:54:41;1.40;;;1.30;;
22388;SDS011;11362;48.102;11.620;2022-11-15T02:57:16;1.23;;;1.23;;
22388;SDS011;11362;48.102;11.620;2022-11-15T03:00:00;1.40;;;1.30;;
22388;SDS011;11362;48.102;11.620;2022-11-15T03:02:37;1.40;;;1.37;;
22388;SDS011;11362;48.102;11.620;2022-11-15T03:05:24;1.33;;;1.30;;
22388;SDS011;11362;48.102;11.620;2022-11-15T03:08:09;1.17;;;1.10;;
22388;SDS011;11362;48.102;11.620;2022-11-15T03:13:52;1.60;;;1.37;;
22388;SDS011;11362;48.102;11.620;2022-11-15T03:16:34;1.07;;;1.07;;
22388;SDS011;11362;48.102;11.620;2022-11-15T03:19:25;1.20;;;1.20;;
22388;SDS011;11362;48.102;11.620;2022-11-15T03:21:57;1.33;;;1.33;;
22388;SDS011;11362;48.102;11.620;2022-11-15T03:24:25;1.07;;;1.07;;
22388;SDS011;11362;48.102;11.620;2022-11-15T03:26:53;1.10;;;1.10;;
22388;SDS011;11362;48.102;11.620;2022-11-15T03:29:26;1.13;;;1.13;;
22388;SDS011;11362;48.102;11.620;2022-11-15T03:31:57;1.30;;;1.30;;
22388;SDS011;11362;48.102;11.620;2022-11-15T03:34:31;1.37;;;1.30;;
22388;SDS011;11362;48.102;11.620;2022-11-15T03:37:06;1.00;;;1.00;;
22388;SDS011;11362;48.102;11.620;2022-11-15T03:39:33;1.10;;;1.10;;
22388;SDS011;11362;48.102;11.620;2022-11-15T03:42:11;1.17;;;1.17;;
22388;SDS011;11362;48.102;11.620;2022-11-15T03:44:51;1.10;;;1.10;;
22388;SDS011;11362;48.102;11.620;2022-11-15T03:47:29;1.47;;;1.13;;
22388;SDS011;11362;48.102;11.620;2022-11-15T03:50:02;1.17;;;1.17;;
22388;SDS011;11362;48.102;11.620;2022-11-15T03:52:33;1.20;;;1.20;;
22388;SDS011;11362;48.102;11.620;2022-11-15T03:55:00;1.60;;;1.50;;
22388;SDS011;11362;48.102;11.620;2022-11-15T03:57:28;1.07;;;0.90;;
22388;SDS011;11362;48.102;11.620;2022-11-15T03:59:53;1.20;;;1.20;;
22388;SDS011;11362;48.102;11.620;2022-11-15T04:02:18;1.10;;;1.10;;
22388;SDS011;11362;48.102;11.620;2022-11-15T04:04:44;1.00;;;1.00;;
22388;SDS011;11362;48.102;11.620;2022-11-15T04:07:09;1.40;;;1.30;;
22388;SDS011;11362;48.102;11.620;2022-11-15T04:09:34;1.20;;;1.17;;
22388;SDS011;11362;48.102;11.620;2022-11-15T04:12:00;1.37;;;1.37;;
22388;SDS011;11362;48.102;11.620;2022-11-15T04:14:25;1.30;;;1.20;;
22388;SDS011;11362;48.102;11.620;2022-11-15T04:16:50;1.20;;;1.20;;
22388;SDS011;11362;48.102;11.620;2022-11-15T04:19:16;1.10;;;1.10;;
22388;SDS011;11362;48.102;11.620;2022-11-15T04:21:42;0.80;;;0.80;;
22388;SDS011;11362;48.102;11.620;2022-11-15T04:24:07;0.90;;;0.90;;
22388;SDS011;11362;48.102;11.620;2022-11-15T04:26:32;1.10;;;1.10;;
22388;SDS011;11362;48.102;11.620;2022-11-15T04:28:58;1.83;;;1.20;;
22388;SDS011;11362;48.102;11.620;2022-11-15T04:31:23;1.40;;;1.30;;
22388;SDS011;11362;48.102;11.620;2022-11-15T04:33:48;0.90;;;0.90;;
22388;SDS011;11362;48.102;11.620;2022-11-15T04:36:14;0.90;;;0.90;;
22388;SDS011;11362;48.102;11.620;2022-11-15T04:38:39;1.00;;;1.00;;
22388;SDS011;11362;48.102;11.620;2022-11-15T04:41:04;0.90;;;0.90;;
22388;SDS011;11362;48.102;11.620;2022-11-15T04:43:30;0.90;;;0.90;;
22388;SDS011;11362;48.102;11.620;2022-11-15T04:45:55;1.00;;;1.00;;
22388;SDS011;11362;48.102;11.620;2022-11-15T04:48:20;1.33;;;1.23;;
22388;SDS011;11362;48.102;11.620;2022-11-15T04:50:49;1.00;;;1.00;;
22388;SDS011;11362;48.102;11.620;2022-11-15T04:53:14;1.73;;;1.17;;
22388;SDS011;11362;48.102;11.620;2022-11-15T04:55:39;2.07;;;1.40;;
22388;SDS011;11362;48.102;11.620;2022-11-15T04:58:05;2.17;;;1.20;;
22388;SDS011;11362;48.102;11.620;2022-11-15T05:00:30;7.50;;;1.60;;
22388;SDS011;11362;48.102;11.620;2022-11-15T05:02:56;2.47;;;1.20;;
22388;SDS011;11362;48.102;11.620;2022-11-15T05:05:23;1.77;;;1.07;;
22388;SDS011;11362;48.102;11.620;2022-11-15T05:07:49;5.10;;;1.50;;
22388;SDS011;11362;48.102;11.620;2022-11-15T05:10:14;8.50;;;2.13;;
22388;SDS011;11362;48.102;11.620;2022-11-15T05:12:39;8.60;;;1.70;;
22388;SDS011;11362;48.102;11.620;2022-11-15T05:15:05;2.37;;;1.90;;
22388;SDS011;11362;48.102;11.620;2022-11-15T05:17:30;9.30;;;1.63;;
22388;SDS011;11362;48.102;11.620;2022-11-15T05:19:56;6.13;;;1.60;;
22388;SDS011;11362;48.102;11.620;2022-11-15T05:22:21;4.13;;;1.40;;
22388;SDS011;11362;48.102;11.620;2022-11-15T05:24:47;4.47;;;1.30;;
22388;SDS011;11362;48.102;11.620;2022-11-15T05:27:12;5.07;;;1.20;;
22388;SDS011;11362;48.102;11.620;2022-11-15T05:29:38;5.90;;;1.20;;
22388;SDS011;11362;48.102;11.620;2022-11-15T05:32:04;4.00;;;1.13;;
22388;SDS011;11362;48.102;11.620;2022-11-15T05:34:31;3.07;;;1.20;;
22388;SDS011;11362;48.102;11.620;2022-11-15T05:36:56;3.80;;;1.60;;
22388;SDS011;11362;48.102;11.620;2022-11-15T05:39:22;2.10;;;1.40;;
22388;SDS011;11362;48.102;11.620;2022-11-15T05:41:48;1.83;;;0.93;;
22388;SDS011;11362;48.102;11.620;2022-11-15T05:44:21;3.17;;;1.33;;
22388;SDS011;11362;48.102;11.620;2022-11-15T05:46:47;2.47;;;1.10;;
22388;SDS011;11362;48.102;11.620;2022-11-15T05:49:16;2.80;;;1.27;;
22388;SDS011;11362;48.102;11.620;2022-11-15T05:51:44;1.57;;;1.30;;
22388;SDS011;11362;48.102;11.620;2022-11-15T05:54:13;3.10;;;1.00;;
22388;SDS011;11362;48.102;11.620;2022-11-15T05:56:39;1.63;;;1.20;;
22388;SDS011;11362;48.102;11.620;2022-11-15T05:59:04;0.80;;;0.80;;
22388;SDS011;11362;48.102;11.620;2022-11-15T06:01:32;9.13;;;1.60;;
22388;SDS011;11362;48.102;11.620;2022-11-15T06:03:57;0.87;;;0.87;;
22388;SDS011;11362;48.102;11.620;2022-11-15T06:06:23;4.20;;;1.30;;
22388;SDS011;11362;48.102;11.620;2022-11-15T06:08:48;4.93;;;1.60;;
22388;SDS011;11362;48.102;11.620;2022-11-15T06:11:13;6.30;;;1.30;;
22388;SDS011;11362;48.102;11.620;2022-11-15T06:13:39;4.13;;;1.40;;
22388;SDS011;11362;48.102;11.620;2022-11-15T06:16:04;15.07;;;2.17;;
22388;SDS011;11362;48.102;11.620;2022-11-15T06:18:31;13.37;;;2.37;;
22388;SDS011;11362;48.102;11.620;2022-11-15T06:20:58;6.40;;;1.70;;
22388;SDS011;11362;48.102;11.620;2022-11-15T06:23:24;4.63;;;1.70;;
22388;SDS011;11362;48.102;11.620;2022-11-15T06:25:49;7.50;;;2.07;;
22388;SDS011;11362;48.102;11.620;2022-11-15T06:28:14;6.57;;;1.30;;
22388;SDS011;11362;48.102;11.620;2022-11-15T06:30:40;4.57;;;1.30;;
22388;SDS011;11362;48.102;11.620;2022-11-15T06:33:05;6.27;;;2.20;;
22388;SDS011;11362;48.102;11.620;2022-11-15T06:35:32;4.07;;;1.40;;
22388;SDS011;11362;48.102;11.620;2022-11-15T06:38:03;5.70;;;1.33;;
22388;SDS011;11362;48.102;11.620;2022-11-15T06:40:36;6.17;;;1.37;;
22388;SDS011;11362;48.102;11.620;2022-11-15T06:43:02;3.13;;;1.60;;
22388;SDS011;11362;48.102;11.620;2022-11-15T06:45:29;3.10;;;1.37;;
22388;SDS011;11362;48.102;11.620;2022-11-15T06:47:54;6.37;;;1.73;;
22388;SDS011;11362;48.102;11.620;2022-11-15T06:50:19;2.97;;;1.43;;
22388;SDS011;11362;48.102;11.620;2022-11-15T06:52:45;4.87;;;2.00;;
22388;SDS011;11362;48.102;11.620;2022-11-15T06:55:10;7.80;;;1.90;;
22388;SDS011;11362;48.102;11.620;2022-11-15T06:57:36;4.73;;;1.47;;
22388;SDS011;11362;48.102;11.620;2022-11-15T07:00:04;5.83;;;1.67;;
22388;SDS011;11362;48.102;11.620;2022-11-15T07:02:30;4.13;;;1.60;;
22388;SDS011;11362;48.102;11.620;2022-11-15T07:04:56;6.00;;;1.40;;
22388;SDS011;11362;48.102;11.620;2022-11-15T07:07:21;6.23;;;1.30;;
22388;SDS011;11362;48.102;11.620;2022-11-15T07:09:46;6.10;;;1.23;;
22388;SDS011;11362;48.102;11.620;2022-11-15T07:12:11;2.73;;;1.40;;
22388;SDS011;11362;48.102;11.620;2022-11-15T07:14:37;5.67;;;1.57;;
22388;SDS011;11362;48.102;11.620;2022-11-15T07:17:03;5.90;;;1.60;;
22388;SDS011;11362;48.102;11.620;2022-11-15T07:19:29;2.27;;;1.40;;
22388;SDS011;11362;48.102;11.620;2022-11-15T07:21:54;4.37;;;1.13;;
22388;SDS011;11362;48.102;11.620;2022-11-15T07:24:20;3.03;;;1.30;;
22388;SDS011;11362;48.102;11.620;2022-11-15T07:26:45;3.90;;;1.60;;
22388;SDS011;11362;48.102;11.620;2022-11-15T07:29:10;6.50;;;1.20;;
22388;SDS011;11362;48.102;11.620;2022-11-15T07:31:35;1.90;;;1.47;;
22388;SDS011;11362;48.102;11.620;2022-11-15T07:34:01;2.70;;;1.10;;
22388;SDS011;11362;48.102;11.620;2022-11-15T07:36:26;5.50;;;1.63;;
22388;SDS011;11362;48.102;11.620;2022-11-15T07:38:51;4.70;;;1.87;;
22388;SDS011;11362;48.102;11.620;2022-11-15T07:41:17;2.60;;;1.30;;
22388;SDS011;11362;48.102;11.620;2022-11-15T07:43:42;1.90;;;1.17;;
22388;SDS011;11362;48.102;11.620;2022-11-15T07:46:08;5.23;;;1.47;;
22388;SDS011;11362;48.102;11.620;2022-11-15T07:48:34;4.90;;;1.33;;
22388;SDS011;11362;48.102;11.620;2022-11-15T07:51:00;1.90;;;1.30;;
22388;SDS011;11362;48.102;11.620;2022-11-15T07:53:25;3.37;;;1.30;;
22388;SDS011;11362;48.102;11.620;2022-11-15T07:55:50;2.33;;;1.33;;
22388;SDS011;11362;48.102;11.620;2022-11-15T07:58:16;1.10;;;1.00;;
22388;SDS011;11362;48.102;11.620;2022-11-15T08:00:41;3.30;;;1.17;;
22388;SDS011;11362;48.102;11.620;2022-11-15T08:05:39;1.40;;;1.30;;
22388;SDS011;11362;48.102;11.620;2022-11-15T08:08:06;1.83;;;1.10;;
22388;SDS011;11362;48.102;11.620;2022-11-15T08:10:32;1.40;;;1.30;;
22388;SDS011;11362;48.102;11.620;2022-11-15T08:15:24;1.63;;;1.17;;
22388;SDS011;11362;48.102;11.620;2022-11-15T08:17:53;1.53;;;1.43;;
22388;SDS011;11362;48.102;11.620;2022-11-15T08:20:26;4.27;;;1.27;;
22388;SDS011;11362;48.102;11.620;2022-11-15T08:22:53;4.47;;;1.30;;
22388;SDS011;11362;48.102;11.620;2022-11-15T08:25:19;6.27;;;1.60;;
22388;SDS011;11362;48.102;11.620;2022-11-15T08:27:44;4.30;;;1.37;;
22388;SDS011;11362;48.102;11.620;2022-11-15T08:30:10;2.10;;;1.30;;
22388;SDS011;11362;48.102;11.620;2022-11-15T08:32:36;3.83;;;1.93;;
22388;SDS011;11362;48.102;11.620;2022-11-15T08:35:01;4.23;;;1.43;;
22388;SDS011;11362;48.102;11.620;2022-11-15T08:37:26;4.67;;;2.00;;
22388;SDS011;11362;48.102;11.620;2022-11-15T08:39:52;3.70;;;1.33;;
22388;SDS011;11362;48.102;11.620;2022-11-15T08:42:17;1.83;;;1.13;;
22388;SDS011;11362;48.102;11.620;2022-11-15T08:44:42;1.87;;;1.20;;
22388;SDS011;11362;48.102;11.620;2022-11-15T08:47:09;3.53;;;1.40;;
22388;SDS011;11362;48.102;11.620;2022-11-15T08:49:36;1.43;;;1.17;;
22388;SDS011;11362;48.102;11.620;2022-11-15T08:52:01;2.57;;;1.47;;
22388;SDS011;11362;48.102;11.620;2022-11-15T08:54:26;5.13;;;1.40;;
22388;SDS011;11362;48.102;11.620;2022-11-15T08:56:52;1.27;;;1.13;;
22388;SDS011;11362;48.102;11.620;2022-11-15T08:59:17;3.47;;;1.50;;
22388;SDS011;11362;48.102;11.620;2022-11-15T09:01:42;3.60;;;1.30;;
22388;SDS011;11362;48.102;11.620;2022-11-15T09:04:08;1.83;;;1.20;;
22388;SDS011;11362;48.102;11.620;2022-11-15T09:06:33;1.70;;;1.13;;
22388;SDS011;11362;48.102;11.620;2022-11-15T09:09:00;2.23;;;1.50;;
22388;SDS011;11362;48.102;11.620;2022-11-15T09:11:26;8.20;;;1.37;;
22388;SDS011;11362;48.102;11.620;2022-11-15T09:13:51;1.40;;;1.30;;
22388;SDS011;11362;48.102;11.620;2022-11-15T09:16:16;2.50;;;1.23;;
22388;SDS011;11362;48.102;11.620;2022-11-15T09:18:41;1.37;;;1.13;;
22388;SDS011;11362;48.102;11.620;2022-11-15T09:21:07;1.70;;;0.90;;
22388;SDS011;11362;48.102;11.620;2022-11-15T09:23:33;2.83;;;1.57;;
22388;SDS011;11362;48.102;11.620;2022-11-15T09:26:02;1.10;;;1.10;;
22388;SDS011;11362;48.102;11.620;2022-11-15T09:28:28;2.80;;;1.13;;
22388;SDS011;11362;48.102;11.620;2022-11-15T09:30:57;1.57;;;1.47;;
22388;SDS011;11362;48.102;11.620;2022-11-15T09:33:23;2.40;;;2.00;;
22388;SDS011;11362;48.102;11.620;2022-11-15T09:35:49;3.70;;;1.30;;
22388;SDS011;11362;48.102;11.620;2022-11-15T09:38:14;2.77;;;1.33;;
22388;SDS011;11362;48.102;11.620;2022-11-15T09:40:40;1.00;;;0.97;;
22388;SDS011;11362;48.102;11.620;2022-11-15T09:43:23;2.43;;;1.17;;
22388;SDS011;11362;48.102;11.620;2022-11-15T09:46:03;1.43;;;1.03;;
22388;SDS011;11362;48.102;11.620;2022-11-15T09:51:55;1.80;;;1.10;;
22388;SDS011;11362;48.102;11.620;2022-11-15T09:56:51;1.07;;;0.93;;
22388;SDS011;11362;48.102;11.620;2022-11-15T10:05:09;1.57;;;1.17;;
22388;SDS011;11362;48.102;11.620;2022-11-15T10:07:40;1.60;;;1.10;;
22388;SDS011;11362;48.102;11.620;2022-11-15T10:13:01;4.07;;;1.43;;
22388;SDS011;11362;48.102;11.620;2022-11-15T10:15:28;1.27;;;1.10;;
22388;SDS011;11362;48.102;11.620;2022-11-15T10:20:32;1.30;;;1.20;;
22388;SDS011;11362;48.102;11.620;2022-11-15T10:23:10;3.27;;;1.10;;
22388;SDS011;11362;48.102;11.620;2022-11-15T10:25:38;0.97;;;0.97;;
22388;SDS011;11362;48.102;11.620;2022-11-15T10:28:11;2.83;;;1.53;;
22388;SDS011;11362;48.102;11.620;2022-11-15T10:30:43;7.33;;;1.73;;
22388;SDS011;11362;48.102;11.620;2022-11-15T10:41:18;13.00;;;3.43;;
22388;SDS011;11362;48.102;11.620;2022-11-15T10:43:44;8.00;;;2.77;;
22388;SDS011;11362;48.102;11.620;2022-11-15T10:46:18;6.93;;;2.30;;
22388;SDS011;11362;48.102;11.620;2022-11-15T10:48:48;11.43;;;2.73;;
22388;SDS011;11362;48.102;11.620;2022-11-15T10:51:48;5.17;;;2.63;;
22388;SDS011;11362;48.102;11.620;2022-11-15T10:54:23;7.00;;;2.13;;
22388;SDS011;11362;48.102;11.620;2022-11-15T10:56:54;10.50;;;3.00;;
22388;SDS011;11362;48.102;11.620;2022-11-15T10:59:29;9.20;;;2.30;;
22388;SDS011;11362;48.102;11.620;2022-11-15T11:01:56;5.10;;;1.97;;
22388;SDS011;11362;48.102;11.620;2022-11-15T11:04:22;4.67;;;2.30;;
22388;SDS011;11362;48.102;11.620;2022-11-15T11:06:56;10.03;;;2.60;;
22388;SDS011;11362;48.102;11.620;2022-11-15T11:09:27;7.53;;;2.20;;
22388;SDS011;11362;48.102;11.620;2022-11-15T11:11:56;4.33;;;1.97;;
22388;SDS011;11362;48.102;11.620;2022-11-15T11:14:31;9.07;;;2.40;;
22388;SDS011;11362;48.102;11.620;2022-11-15T11:17:03;8.83;;;2.63;;
22388;SDS011;11362;48.102;11.620;2022-11-15T11:28:42;5.83;;;2.10;;
22388;SDS011;11362;48.102;11.620;2022-11-15T11:34:05;6.57;;;1.80;;
22388;SDS011;11362;48.102;11.620;2022-11-15T11:39:16;6.13;;;1.93;;
22388;SDS011;11362;48.102;11.620;2022-11-15T11:41:56;4.73;;;1.63;;
22388;SDS011;11362;48.102;11.620;2022-11-15T11:44:39;3.23;;;1.47;;
22388;SDS011;11362;48.102;11.620;2022-11-15T11:47:21;2.17;;;1.27;;
22388;SDS011;11362;48.102;11.620;2022-11-15T11:55:15;4.37;;;1.73;;
22388;SDS011;11362;48.102;11.620;2022-11-15T11:57:52;1.60;;;1.30;;
22388;SDS011;11362;48.102;11.620;2022-11-15T12:00:27;2.90;;;1.90;;
22388;SDS011;11362;48.102;11.620;2022-11-15T12:03:11;3.17;;;1.80;;
22388;SDS011;11362;48.102;11.620;2022-11-15T12:05:42;4.80;;;1.40;;
22388;SDS011;11362;48.102;11.620;2022-11-15T12:13:45;2.17;;;1.37;;
22388;SDS011;11362;48.102;11.620;2022-11-15T12:16:15;2.27;;;1.23;;
22388;SDS011;11362;48.102;11.620;2022-11-15T12:18:47;2.17;;;1.40;;
22388;SDS011;11362;48.102;11.620;2022-11-15T12:21:21;3.13;;;1.30;;
22388;SDS011;11362;48.102;11.620;2022-11-15T12:23:54;3.07;;;1.07;;
22388;SDS011;11362;48.102;11.620;2022-11-15T12:26:27;3.73;;;0.93;;
22388;SDS011;11362;48.102;11.620;2022-11-15T12:29:01;1.23;;;1.10;;
22388;SDS011;11362;48.102;11.620;2022-11-15T12:34:00;1.57;;;1.30;;
22388;SDS011;11362;48.102;11.620;2022-11-15T12:36:30;2.90;;;1.00;;
22388;SDS011;11362;48.102;11.620;2022-11-15T12:39:07;1.63;;;1.23;;
22388;SDS011;11362;48.102;11.620;2022-11-15T12:41:34;4.23;;;1.13;;
22388;SDS011;11362;48.102;11.620;2022-11-15T12:44:04;2.67;;;1.03;;
22388;SDS011;11362;48.102;11.620;2022-11-15T12:49:10;2.30;;;1.10;;
22388;SDS011;11362;48.102;11.620;2022-11-15T13:02:23;3.43;;;1.20;;
22388;SDS011;11362;48.102;11.620;2022-11-15T13:04:51;1.20;;;1.20;;
22388;SDS011;11362;48.102;11.620;2022-11-15T13:17:40;1.73;;;0.87;;
22388;SDS011;11362;48.102;11.620;2022-11-15T13:22:40;3.43;;;1.13;;
22388;SDS011;11362;48.102;11.620;2022-11-15T13:25:14;1.00;;;1.00;;
22388;SDS011;11362;48.102;11.620;2022-11-15T13:27:41;4.63;;;1.50;;
22388;SDS011;11362;48.102;11.620;2022-11-15T13:30:13;3.33;;;1.17;;
22388;SDS011;11362;48.102;11.620;2022-11-15T13:32:43;3.00;;;1.43;;
22388;SDS011;11362;48.102;11.620;2022-11-15T13:35:08;5.73;;;2.10;;
22388;SDS011;11362;48.102;11.620;2022-11-15T13:37:34;5.50;;;1.83;;
22388;SDS011;11362;48.102;11.620;2022-11-15T13:42:51;6.77;;;1.63;;
22388;SDS011;11362;48.102;11.620;2022-11-15T13:45:17;4.87;;;1.50;;
22388;SDS011;11362;48.102;11.620;2022-11-15T13:47:43;1.87;;;1.47;;
22388;SDS011;11362;48.102;11.620;2022-11-15T13:50:12;1.43;;;1.07;;
22388;SDS011;11362;48.102;11.620;2022-11-15T13:52:39;2.00;;;1.33;;
22388;SDS011;11362;48.102;11.620;2022-11-15T13:55:15;2.30;;;1.57;;
22388;SDS011;11362;48.102;11.620;2022-11-15T13:57:45;4.83;;;1.50;;
22388;SDS011;11362;48.102;11.620;2022-11-15T14:00:34;4.77;;;1.70;;
22388;SDS011;11362;48.102;11.620;2022-11-15T14:08:32;8.47;;;2.07;;
22388;SDS011;11362;48.102;11.620;2022-11-15T14:16:50;3.07;;;1.43;;
22388;SDS011;11362;48.102;11.620;2022-11-15T14:24:45;5.17;;;1.73;;
22388;SDS011;11362;48.102;11.620;2022-11-15T14:27:27;1.10;;;1.10;;
22388;SDS011;11362;48.102;11.620;2022-11-15T14:29:53;2.00;;;1.20;;
22388;SDS011;11362;48.102;11.620;2022-11-15T14:32:23;2.37;;;1.67;;
22388;SDS011;11362;48.102;11.620;2022-11-15T14:34:57;4.10;;;1.40;;
22388;SDS011;11362;48.102;11.620;2022-11-15T14:37:25;1.73;;;1.17;;
22388;SDS011;11362;48.102;11.620;2022-11-15T14:39:51;5.10;;;1.60;;
22388;SDS011;11362;48.102;11.620;2022-11-15T14:42:18;2.63;;;1.00;;
22388;SDS011;11362;48.102;11.620;2022-11-15T14:44:44;1.00;;;1.00;;
22388;SDS011;11362;48.102;11.620;2022-11-15T14:47:09;2.10;;;1.50;;
22388;SDS011;11362;48.102;11.620;2022-11-15T14:49:34;1.87;;;1.50;;
22388;SDS011;11362;48.102;11.620;2022-11-15T14:52:00;3.13;;;1.20;;
22388;SDS011;11362;48.102;11.620;2022-11-15T14:54:25;1.60;;;1.50;;
22388;SDS011;11362;48.102;11.620;2022-11-15T14:56:50;1.43;;;1.30;;
22388;SDS011;11362;48.102;11.620;2022-11-15T14:59:16;3.93;;;1.43;;
22388;SDS011;11362;48.102;11.620;2022-11-15T15:01:41;1.00;;;1.00;;
22388;SDS011;11362;48.102;11.620;2022-11-15T15:04:06;1.47;;;1.40;;
22388;SDS011;11362;48.102;11.620;2022-11-15T15:06:34;1.10;;;1.00;;
22388;SDS011;11362;48.102;11.620;2022-11-15T15:08:59;5.90;;;1.43;;
22388;SDS011;11362;48.102;11.620;2022-11-15T15:11:25;1.20;;;1.10;;
22388;SDS011;11362;48.102;11.620;2022-11-15T15:13:53;3.10;;;1.80;;
22388;SDS011;11362;48.102;11.620;2022-11-15T15:16:18;2.60;;;1.37;;
22388;SDS011;11362;48.102;11.620;2022-11-15T15:18:44;2.37;;;1.37;;
22388;SDS011;11362;48.102;11.620;2022-11-15T15:21:20;1.67;;;1.47;;
22388;SDS011;11362;48.102;11.620;2022-11-15T15:23:48;1.20;;;1.10;;
22388;SDS011;11362;48.102;11.620;2022-11-15T15:26:13;3.07;;;1.33;;
22388;SDS011;11362;48.102;11.620;2022-11-15T15:28:38;1.60;;;1.50;;
22388;SDS011;11362;48.102;11.620;2022-11-15T15:31:04;4.90;;;1.53;;
22388;SDS011;11362;48.102;11.620;2022-11-15T15:33:29;1.00;;;1.00;;
22388;SDS011;11362;48.102;11.620;2022-11-15T15:35:55;2.63;;;0.97;;
22388;SDS011;11362;48.102;11.620;2022-11-15T15:38:20;1.87;;;1.63;;
22388;SDS011;11362;48.102;11.620;2022-11-15T15:40:45;1.20;;;1.13;;
22388;SDS011;11362;48.102;11.620;2022-11-15T15:43:11;2.77;;;1.87;;
22388;SDS011;11362;48.102;11.620;2022-11-15T15:45:37;1.37;;;1.10;;
22388;SDS011;11362;48.102;11.620;2022-11-15T15:48:04;1.00;;;1.00;;
22388;SDS011;11362;48.102;11.620;2022-11-15T15:50:32;1.33;;;1.20;;
22388;SDS011;11362;48.102;11.620;2022-11-15T15:53:00;0.90;;;0.90;;
22388;SDS011;11362;48.102;11.620;2022-11-15T15:55:28;1.67;;;1.07;;
22388;SDS011;11362;48.102;11.620;2022-11-15T15:57:54;1.20;;;1.10;;
22388;SDS011;11362;48.102;11.620;2022-11-15T16:00:20;1.30;;;1.20;;
22388;SDS011;11362;48.102;11.620;2022-11-15T16:02:47;1.23;;;1.20;;
22388;SDS011;11362;48.102;11.620;2022-11-15T16:05:13;1.47;;;1.17;;
22388;SDS011;11362;48.102;11.620;2022-11-15T16:07:39;1.30;;;1.20;;
22388;SDS011;11362;48.102;11.620;2022-11-15T16:10:14;3.37;;;1.47;;
22388;SDS011;11362;48.102;11.620;2022-11-15T16:12:42;1.67;;;1.07;;
22388;SDS011;11362;48.102;11.620;2022-11-15T16:15:07;1.70;;;1.03;;
22388;SDS011;11362;48.102;11.620;2022-11-15T16:17:35;1.20;;;1.07;;
22388;SDS011;11362;48.102;11.620;2022-11-15T16:20:03;1.30;;;1.20;;
22388;SDS011;11362;48.102;11.620;2022-11-15T16:22:29;3.97;;;1.20;;
22388;SDS011;11362;48.102;11.620;2022-11-15T16:24:55;1.03;;;1.00;;
22388;SDS011;11362;48.102;11.620;2022-11-15T16:27:21;1.80;;;1.63;;
22388;SDS011;11362;48.102;11.620;2022-11-15T16:29:47;1.00;;;1.00;;
22388;SDS011;11362;48.102;11.620;2022-11-15T16:32:12;1.20;;;1.20;;
22388;SDS011;11362;48.102;11.620;2022-11-15T16:34:38;2.20;;;1.17;;
22388;SDS011;11362;48.102;11.620;2022-11-15T16:37:03;1.43;;;1.20;;
22388;SDS011;11362;48.102;11.620;2022-11-15T16:39:29;7.53;;;1.60;;
22388;SDS011;11362;48.102;11.620;2022-11-15T16:41:55;1.63;;;1.27;;
22388;SDS011;11362;48.102;11.620;2022-11-15T16:44:21;2.00;;;1.30;;